createdAt,value
2019-04-04T00:00:29.125Z,6.053772
2019-04-04T00:05:51.756Z,6.134338
2019-04-04T00:11:14.411Z,6.174622
2019-04-04T00:16:38.603Z,6.104126
2019-04-04T00:22:02.926Z,5.993347
2019-04-04T00:27:24.960Z,5.872498
2019-04-04T00:32:47.579Z,5.78186
2019-04-04T00:38:10.286Z,5.741577
2019-04-04T00:43:32.945Z,5.661011
2019-04-04T00:48:55.582Z,5.671082
2019-04-04T00:54:19.228Z,5.600586
2019-04-04T00:59:41.895Z,5.550232
2019-04-04T01:05:06.142Z,5.550232
2019-04-04T01:10:28.847Z,5.368958
2019-04-04T01:15:51.510Z,5.117188
2019-04-04T01:21:14.143Z,5.086975
2019-04-04T01:26:37.369Z,5.217896
2019-04-04T01:32:00.011Z,5.167542
2019-04-04T01:37:22.696Z,5.469666
2019-04-04T01:42:45.395Z,5.258179
2019-04-04T01:48:08.189Z,5.117188
2019-04-04T01:53:31.855Z,5.016479
2019-04-04T01:58:55.380Z,5.137329
2019-04-04T02:04:18.204Z,4.966125
2019-04-04T02:09:43.278Z,4.865417
2019-04-04T02:15:03.437Z,4.835205
2019-04-04T02:20:27.522Z,4.653931
2019-04-04T02:25:50.086Z,4.512939
2019-04-04T02:31:12.727Z,4.502869
2019-04-04T02:36:35.342Z,4.432373
2019-04-04T02:41:57.963Z,4.291382
2019-04-04T02:47:20.603Z,4.110107
2019-04-04T02:52:45.625Z,4.039612
2019-04-04T02:58:05.857Z,4.079895
2019-04-04T03:03:29.526Z,4.100037
2019-04-04T03:08:53.213Z,3.989258
2019-04-04T03:14:15.874Z,3.948975
2019-04-04T03:19:40.679Z,4.100037
2019-04-04T03:25:01.602Z,3.999329
2019-04-04T03:30:25.206Z,3.898621
2019-04-04T03:35:47.874Z,3.737488
2019-04-04T03:41:11.510Z,3.777771
2019-04-04T03:46:38.689Z,3.445435
2019-04-04T03:51:58.316Z,3.707275
2019-04-04T03:57:23.642Z,3.354797
2019-04-04T04:02:49.621Z,3.374939
2019-04-04T04:08:10.047Z,3.435364
2019-04-04T04:13:33.658Z,3.304443
2019-04-04T04:18:56.989Z,3.405151
2019-04-04T04:24:19.629Z,3.304443
2019-04-04T04:29:42.521Z,3.173523
2019-04-04T04:35:08.464Z,3.344727
2019-04-04T04:40:27.966Z,3.173523
2019-04-04T04:45:50.631Z,3.01239
2019-04-04T04:51:13.280Z,2.901611
2019-04-04T04:56:35.948Z,2.770691
2019-04-04T05:01:59.028Z,2.770691
2019-04-04T05:07:21.686Z,2.992249
2019-04-04T05:12:44.399Z,2.972107
2019-04-04T05:18:07.029Z,2.901611
2019-04-04T05:23:30.768Z,2.710266
2019-04-04T05:28:56.755Z,2.891541
2019-04-04T05:34:16.750Z,3.163452
2019-04-04T05:39:39.378Z,3.354797
2019-04-04T05:45:03.168Z,3.7677
2019-04-04T05:50:26.863Z,4.059753
2019-04-04T05:55:49.492Z,4.251099
2019-04-04T06:01:12.834Z,4.261169
2019-04-04T06:06:35.525Z,4.321594
2019-04-04T06:11:58.243Z,4.321594
2019-04-04T06:17:20.881Z,4.512939
2019-04-04T06:22:44.613Z,4.472656
2019-04-04T06:28:09.869Z,4.543152
2019-04-04T06:33:33.050Z,4.64386
2019-04-04T06:38:54.571Z,4.855347
2019-04-04T06:44:16.705Z,4.986267
2019-04-04T06:49:39.327Z,5.086975
2019-04-04T06:55:01.964Z,5.298462
2019-04-04T07:00:24.551Z,5.439453
2019-04-04T07:05:48.349Z,5.449524
2019-04-04T07:11:20.821Z,5.409241
2019-04-04T07:16:36.696Z,5.560303
2019-04-04T07:21:57.449Z,5.661011
2019-04-04T07:27:20.154Z,5.832214
2019-04-04T07:32:42.884Z,5.77179
2019-04-04T07:38:05.600Z,5.691223
2019-04-04T07:43:28.309Z,5.691223
2019-04-04T07:48:52.396Z,5.77179
2019-04-04T07:54:14.939Z,5.691223
2019-04-04T07:59:37.679Z,5.741577
2019-04-04T08:05:00.416Z,5.701294
2019-04-04T08:10:23.158Z,5.751648
2019-04-04T08:15:45.795Z,5.751648
2019-04-04T08:21:08.475Z,5.842285
2019-04-04T08:26:31.321Z,6.063843
2019-04-04T08:31:54.200Z,6.174622
2019-04-04T08:37:16.963Z,6.27533
2019-04-04T08:42:39.610Z,6.245117
2019-04-04T08:48:02.248Z,6.345825
2019-04-04T08:53:24.986Z,5.932922
2019-04-04T08:58:51.406Z,5.953064
2019-04-04T09:04:11.275Z,6.245117
2019-04-04T09:09:34.694Z,6.204834
2019-04-04T09:14:56.619Z,6.03363
2019-04-04T09:20:19.343Z,6.315613
2019-04-04T09:25:42.497Z,6.204834
2019-04-04T09:31:05.188Z,6.03363
2019-04-04T09:36:27.882Z,6.03363
2019-04-04T09:41:50.553Z,6.053772
2019-04-04T09:47:13.158Z,6.164551
2019-04-04T09:52:35.854Z,6.27533
2019-04-04T09:57:58.497Z,6.416321
2019-04-04T10:03:21.166Z,6.376038
2019-04-04T10:08:43.891Z,6.446533
2019-04-04T10:14:06.793Z,6.235046
2019-04-04T10:19:29.470Z,6.547241
2019-04-04T10:24:52.284Z,6.607666
2019-04-04T10:30:15.067Z,6.708374
2019-04-04T10:35:37.725Z,6.728516
2019-04-04T10:41:00.499Z,6.5271
2019-04-04T10:46:23.109Z,6.376038
2019-04-04T10:51:46.410Z,6.446533
2019-04-04T10:57:09.100Z,6.295471
2019-04-04T11:02:31.969Z,6.194763
2019-04-04T11:07:56.732Z,6.235046
2019-04-04T11:13:17.446Z,6.345825
2019-04-04T11:18:41.771Z,6.355896
2019-04-04T11:24:05.096Z,6.506958
2019-04-04T11:29:28.133Z,6.728516
2019-04-04T11:34:53.242Z,6.940002
2019-04-04T11:40:14.106Z,7.342834
2019-04-04T11:45:37.349Z,7.685242
2019-04-04T11:51:00.248Z,8.128357
2019-04-04T11:56:22.958Z,7.514038
2019-04-04T12:01:45.889Z,7.373047
2019-04-04T12:07:08.562Z,7.362976
2019-04-04T12:12:31.290Z,7.191772
2019-04-04T12:17:54.088Z,7.181702
2019-04-04T12:23:17.078Z,7.29248
2019-04-04T12:28:39.690Z,7.141418
2019-04-04T12:34:02.415Z,7.272339
2019-04-04T12:39:25.039Z,7.16156
2019-04-04T12:44:47.685Z,7.181702
2019-04-04T12:50:10.375Z,7.070923
2019-04-04T12:55:33.079Z,7.181702
2019-04-04T13:00:55.712Z,7.191772
2019-04-04T13:06:18.396Z,7.111206
2019-04-04T13:11:41.156Z,7.111206
2019-04-04T13:17:03.841Z,7.181702
2019-04-04T13:22:26.626Z,6.990356
2019-04-04T13:27:49.346Z,7.04071
2019-04-04T13:33:12.079Z,6.960144
2019-04-04T13:38:35.756Z,6.970215
2019-04-04T13:43:58.397Z,7.121277
2019-04-04T13:49:21.136Z,6.940002
2019-04-04T13:54:43.812Z,6.859436
2019-04-04T14:00:07.407Z,6.940002
2019-04-04T14:05:30.078Z,6.990356
2019-04-04T14:10:58.210Z,6.90979
2019-04-04T14:16:15.404Z,6.929932
2019-04-04T14:21:38.514Z,6.929932
2019-04-04T14:27:01.154Z,6.829224
2019-04-04T14:32:23.854Z,6.829224
2019-04-04T14:37:46.452Z,6.869507
2019-04-04T14:43:09.144Z,6.708374
2019-04-04T14:48:31.776Z,6.577454
2019-04-04T14:53:55.863Z,6.567383
2019-04-04T14:59:18.317Z,6.637878
2019-04-04T15:04:40.974Z,6.426392
2019-04-04T15:10:03.655Z,6.577454
2019-04-04T15:15:26.550Z,6.376038
2019-04-04T15:20:48.921Z,6.426392
2019-04-04T15:26:11.565Z,6.386108
2019-04-04T15:31:34.258Z,6.345825
2019-04-04T15:36:56.885Z,6.265259
2019-04-04T15:42:19.687Z,6.27533
2019-04-04T15:47:42.409Z,6.27533
2019-04-04T15:53:06.082Z,6.27533
2019-04-04T15:58:28.697Z,6.245117
2019-04-04T16:03:51.423Z,6.265259
2019-04-04T16:09:14.188Z,6.134338
2019-04-04T16:14:37.077Z,6.235046
2019-04-04T16:19:59.830Z,6.03363
2019-04-04T16:25:22.579Z,5.90271
2019-04-04T16:30:45.382Z,6.063843
2019-04-04T16:36:08.136Z,6.114197
2019-04-04T16:41:30.854Z,6.164551
2019-04-04T16:46:53.556Z,6.144409
2019-04-04T16:52:16.289Z,6.194763
2019-04-04T16:57:39.112Z,6.144409
2019-04-04T17:03:01.874Z,6.214905
2019-04-04T17:08:24.668Z,6.053772
2019-04-04T17:13:47.317Z,6.104126
2019-04-04T17:19:09.994Z,6.104126
2019-04-04T17:24:33.673Z,6.164551
2019-04-04T17:29:56.669Z,6.053772
2019-04-04T17:35:19.004Z,5.953064
2019-04-04T17:40:41.619Z,5.983276
2019-04-04T17:46:04.442Z,5.932922
2019-04-04T17:51:27.331Z,5.852356
2019-04-04T17:56:50.261Z,5.922852
2019-04-04T18:02:12.398Z,5.852356
2019-04-04T18:07:35.019Z,5.872498
2019-04-04T18:12:57.761Z,5.832214
2019-04-04T18:18:20.512Z,5.812073
2019-04-04T18:23:43.988Z,5.802002
2019-04-04T18:29:06.641Z,5.872498
2019-04-04T18:34:29.346Z,5.882568
2019-04-04T18:39:52.038Z,5.90271
2019-04-04T18:45:14.920Z,5.922852
2019-04-04T18:50:37.705Z,5.90271
2019-04-04T18:56:01.039Z,5.90271
2019-04-04T19:01:23.785Z,5.872498
2019-04-04T19:06:46.464Z,5.872498
2019-04-04T19:12:09.094Z,5.90271
2019-04-04T19:17:31.757Z,5.882568
2019-04-04T19:22:54.432Z,5.882568
2019-04-04T19:28:17.206Z,5.872498
2019-04-04T19:33:40.239Z,5.832214
2019-04-04T19:39:03.545Z,5.802002
2019-04-04T19:44:26.445Z,5.78186
2019-04-04T19:49:49.144Z,5.802002
2019-04-04T19:55:11.994Z,5.832214
2019-04-04T20:00:34.834Z,5.852356
2019-04-04T20:05:57.970Z,5.812073
2019-04-04T20:11:20.665Z,5.802002
2019-04-04T20:16:43.392Z,5.802002
2019-04-04T20:22:08.087Z,5.691223
2019-04-04T20:27:30.926Z,5.731506
2019-04-04T20:32:53.638Z,5.741577
2019-04-04T20:38:16.405Z,5.78186
2019-04-04T20:43:43.377Z,5.78186
2019-04-04T20:49:02.806Z,5.701294
2019-04-04T20:54:25.543Z,5.671082
2019-04-04T20:59:48.299Z,5.751648
2019-04-04T21:05:10.948Z,5.701294
2019-04-04T21:10:33.650Z,5.741577
2019-04-04T21:15:56.259Z,5.701294
2019-04-04T21:21:20.561Z,5.78186
2019-04-04T21:26:43.241Z,5.77179
2019-04-04T21:32:05.937Z,5.751648
2019-04-04T21:37:28.614Z,5.78186
2019-04-04T21:42:52.177Z,5.802002
2019-04-04T21:48:14.891Z,5.832214
2019-04-04T21:53:37.555Z,5.812073
2019-04-04T21:59:00.290Z,5.852356
2019-04-04T22:04:22.941Z,5.832214
2019-04-04T22:09:45.601Z,5.812073
2019-04-04T22:15:08.324Z,5.872498
2019-04-04T22:20:32.094Z,5.852356
2019-04-04T22:25:54.893Z,5.842285
2019-04-04T22:31:17.658Z,5.872498
2019-04-04T22:36:40.391Z,5.872498
2019-04-04T22:42:03.119Z,5.922852
2019-04-04T22:47:25.791Z,5.802002
2019-04-04T22:52:48.503Z,5.842285
2019-04-04T22:58:11.229Z,5.90271
2019-04-04T23:03:34.922Z,5.852356
2019-04-04T23:08:57.974Z,5.802002
2019-04-04T23:14:20.742Z,5.802002
2019-04-04T23:19:43.452Z,5.802002
2019-04-04T23:25:06.132Z,5.812073
2019-04-04T23:30:28.801Z,5.802002
2019-04-04T23:35:51.494Z,5.812073
2019-04-04T23:41:14.798Z,5.78186
2019-04-04T23:46:37.532Z,5.832214
2019-04-04T23:52:00.189Z,5.852356
2019-04-04T23:57:22.882Z,5.832214
